sensor_id;sensor_type;location;lat;lon;timestamp;temperature;humidity
67141;DHT22;54058;52.010;5.546;2023-04-15T00:00:54;8.70;65.20
67141;DHT22;54058;52.010;5.546;2023-04-15T00:03:19;8.60;65.20
67141;DHT22;54058;52.010;5.546;2023-04-15T00:05:45;8.60;65.20
67141;DHT22;54058;52.010;5.546;2023-04-15T00:08:11;8.60;65.30
67141;DHT22;54058;52.010;5.546;2023-04-15T00:10:37;8.60;65.20
67141;DHT22;54058;52.010;5.546;2023-04-15T00:13:02;8.60;65.30
67141;DHT22;54058;52.010;5.546;2023-04-15T00:15:28;8.60;65.40
67141;DHT22;54058;52.010;5.546;2023-04-15T00:17:54;8.60;65.50
67141;DHT22;54058;52.010;5.546;2023-04-15T00:20:20;8.50;65.50
67141;DHT22;54058;52.010;5.546;2023-04-15T00:22:45;8.50;65.50
67141;DHT22;54058;52.010;5.546;2023-04-15T00:25:11;8.50;65.60
67141;DHT22;54058;52.010;5.546;2023-04-15T00:27:37;8.50;65.70
67141;DHT22;54058;52.010;5.546;2023-04-15T00:30:03;8.40;65.70
67141;DHT22;54058;52.010;5.546;2023-04-15T00:32:29;8.40;65.70
67141;DHT22;54058;52.010;5.546;2023-04-15T00:34:55;8.40;65.70
67141;DHT22;54058;52.010;5.546;2023-04-15T00:37:21;8.40;65.80
67141;DHT22;54058;52.010;5.546;2023-04-15T00:39:47;8.40;65.90
67141;DHT22;54058;52.010;5.546;2023-04-15T00:42:13;8.30;65.70
67141;DHT22;54058;52.010;5.546;2023-04-15T00:44:39;8.30;65.80
67141;DHT22;54058;52.010;5.546;2023-04-15T00:47:05;8.30;65.80
67141;DHT22;54058;52.010;5.546;2023-04-15T00:49:31;8.30;65.90
67141;DHT22;54058;52.010;5.546;2023-04-15T00:51:57;8.20;65.80
67141;DHT22;54058;52.010;5.546;2023-04-15T00:54:23;8.20;66.10
67141;DHT22;54058;52.010;5.546;2023-04-15T00:56:48;8.20;66.10
67141;DHT22;54058;52.010;5.546;2023-04-15T00:59:14;8.20;66.10
67141;DHT22;54058;52.010;5.546;2023-04-15T01:01:41;8.10;66.10
67141;DHT22;54058;52.010;5.546;2023-04-15T01:04:07;8.00;68.50
67141;DHT22;54058;52.010;5.546;2023-04-15T01:06:35;8.00;66.50
67141;DHT22;54058;52.010;5.546;2023-04-15T01:09:01;8.00;66.30
67141;DHT22;54058;52.010;5.546;2023-04-15T01:11:28;8.00;66.40
67141;DHT22;54058;52.010;5.546;2023-04-15T01:13:54;8.00;66.30
67141;DHT22;54058;52.010;5.546;2023-04-15T01:16:21;8.00;66.40
67141;DHT22;54058;52.010;5.546;2023-04-15T01:18:47;8.00;66.50
67141;DHT22;54058;52.010;5.546;2023-04-15T01:21:13;8.00;66.50
67141;DHT22;54058;52.010;5.546;2023-04-15T01:23:39;8.00;66.60
67141;DHT22;54058;52.010;5.546;2023-04-15T01:26:06;8.00;66.60
67141;DHT22;54058;52.010;5.546;2023-04-15T01:28:33;8.00;66.50
67141;DHT22;54058;52.010;5.546;2023-04-15T01:31:13;8.00;67.10
67141;DHT22;54058;52.010;5.546;2023-04-15T01:33:40;7.90;66.80
67141;DHT22;54058;52.010;5.546;2023-04-15T01:36:07;7.90;66.70
67141;DHT22;54058;52.010;5.546;2023-04-15T01:38:33;7.80;66.70
67141;DHT22;54058;52.010;5.546;2023-04-15T01:40:59;7.80;69.30
67141;DHT22;54058;52.010;5.546;2023-04-15T01:43:25;7.80;66.90
67141;DHT22;54058;52.010;5.546;2023-04-15T01:45:51;7.80;66.90
67141;DHT22;54058;52.010;5.546;2023-04-15T01:48:17;7.80;66.90
67141;DHT22;54058;52.010;5.546;2023-04-15T01:50:44;7.80;67.00
67141;DHT22;54058;52.010;5.546;2023-04-15T01:53:09;7.80;66.90
67141;DHT22;54058;52.010;5.546;2023-04-15T01:55:35;7.80;67.10
67141;DHT22;54058;52.010;5.546;2023-04-15T01:58:01;7.70;67.00
67141;DHT22;54058;52.010;5.546;2023-04-15T02:00:27;7.60;66.90
67141;DHT22;54058;52.010;5.546;2023-04-15T02:02:53;7.60;67.20
67141;DHT22;54058;52.010;5.546;2023-04-15T02:05:18;7.70;67.40
67141;DHT22;54058;52.010;5.546;2023-04-15T02:07:44;7.60;67.30
67141;DHT22;54058;52.010;5.546;2023-04-15T02:10:10;7.70;67.40
67141;DHT22;54058;52.010;5.546;2023-04-15T02:12:38;7.60;67.40
67141;DHT22;54058;52.010;5.546;2023-04-15T02:15:04;7.60;67.30
67141;DHT22;54058;52.010;5.546;2023-04-15T02:17:33;7.60;67.40
67141;DHT22;54058;52.010;5.546;2023-04-15T02:19:59;7.60;67.40
67141;DHT22;54058;52.010;5.546;2023-04-15T02:22:25;7.60;67.50
67141;DHT22;54058;52.010;5.546;2023-04-15T02:24:51;7.60;67.60
67141;DHT22;54058;52.010;5.546;2023-04-15T02:27:17;7.60;67.60
67141;DHT22;54058;52.010;5.546;2023-04-15T02:29:44;7.50;67.40
67141;DHT22;54058;52.010;5.546;2023-04-15T02:32:10;7.40;67.50
67141;DHT22;54058;52.010;5.546;2023-04-15T02:34:37;7.40;67.70
67141;DHT22;54058;52.010;5.546;2023-04-15T02:37:09;7.40;68.40
67141;DHT22;54058;52.010;5.546;2023-04-15T02:39:34;7.40;67.70
67141;DHT22;54058;52.010;5.546;2023-04-15T02:42:03;7.40;67.90
67141;DHT22;54058;52.010;5.546;2023-04-15T02:44:30;7.40;67.90
67141;DHT22;54058;52.010;5.546;2023-04-15T02:46:57;7.30;67.90
67141;DHT22;54058;52.010;5.546;2023-04-15T02:49:24;7.30;68.00
67141;DHT22;54058;52.010;5.546;2023-04-15T02:51:50;7.30;67.90
67141;DHT22;54058;52.010;5.546;2023-04-15T02:54:16;7.30;68.00
67141;DHT22;54058;52.010;5.546;2023-04-15T02:56:42;7.30;68.80
67141;DHT22;54058;52.010;5.546;2023-04-15T02:59:08;7.30;68.20
67141;DHT22;54058;52.010;5.546;2023-04-15T03:01:33;7.30;68.20
67141;DHT22;54058;52.010;5.546;2023-04-15T03:03:59;7.30;68.10
67141;DHT22;54058;52.010;5.546;2023-04-15T03:06:25;7.30;68.20
67141;DHT22;54058;52.010;5.546;2023-04-15T03:08:50;7.20;68.30
67141;DHT22;54058;52.010;5.546;2023-04-15T03:11:16;7.20;68.30
67141;DHT22;54058;52.010;5.546;2023-04-15T03:13:42;7.30;68.40
67141;DHT22;54058;52.010;5.546;2023-04-15T03:16:08;7.30;68.70
67141;DHT22;54058;52.010;5.546;2023-04-15T03:18:34;7.30;69.50
67141;DHT22;54058;52.010;5.546;2023-04-15T03:20:59;7.40;69.30
67141;DHT22;54058;52.010;5.546;2023-04-15T03:23:25;7.40;68.60
67141;DHT22;54058;52.010;5.546;2023-04-15T03:25:51;7.40;68.50
67141;DHT22;54058;52.010;5.546;2023-04-15T03:28:16;7.40;68.50
67141;DHT22;54058;52.010;5.546;2023-04-15T03:30:42;7.40;68.50
67141;DHT22;54058;52.010;5.546;2023-04-15T03:33:08;7.50;69.10
67141;DHT22;54058;52.010;5.546;2023-04-15T03:35:33;7.50;68.60
67141;DHT22;54058;52.010;5.546;2023-04-15T03:37:59;7.50;68.30
67141;DHT22;54058;52.010;5.546;2023-04-15T03:40:25;7.50;68.20
67141;DHT22;54058;52.010;5.546;2023-04-15T03:42:51;7.60;68.30
67141;DHT22;54058;52.010;5.546;2023-04-15T03:45:16;7.50;68.20
67141;DHT22;54058;52.010;5.546;2023-04-15T03:47:42;7.60;68.20
67141;DHT22;54058;52.010;5.546;2023-04-15T03:50:08;7.60;68.30
67141;DHT22;54058;52.010;5.546;2023-04-15T03:52:33;7.60;68.20
67141;DHT22;54058;52.010;5.546;2023-04-15T03:54:59;7.60;68.10
67141;DHT22;54058;52.010;5.546;2023-04-15T03:57:25;7.50;68.30
67141;DHT22;54058;52.010;5.546;2023-04-15T03:59:51;7.50;68.60
67141;DHT22;54058;52.010;5.546;2023-04-15T04:02:17;7.50;69.00
67141;DHT22;54058;52.010;5.546;2023-04-15T04:04:42;7.50;68.80
67141;DHT22;54058;52.010;5.546;2023-04-15T04:07:14;7.50;69.40
67141;DHT22;54058;52.010;5.546;2023-04-15T04:09:39;7.40;69.30
67141;DHT22;54058;52.010;5.546;2023-04-15T04:12:06;7.40;69.10
67141;DHT22;54058;52.010;5.546;2023-04-15T04:14:32;7.40;69.40
67141;DHT22;54058;52.010;5.546;2023-04-15T04:16:57;7.40;69.50
67141;DHT22;54058;52.010;5.546;2023-04-15T04:19:23;7.40;69.80
67141;DHT22;54058;52.010;5.546;2023-04-15T04:21:48;7.40;70.00
67141;DHT22;54058;52.010;5.546;2023-04-15T04:24:14;7.40;69.80
67141;DHT22;54058;52.010;5.546;2023-04-15T04:26:39;7.40;69.60
67141;DHT22;54058;52.010;5.546;2023-04-15T04:29:05;7.40;70.20
67141;DHT22;54058;52.010;5.546;2023-04-15T04:31:31;7.40;69.30
67141;DHT22;54058;52.010;5.546;2023-04-15T04:33:57;7.40;69.70
67141;DHT22;54058;52.010;5.546;2023-04-15T04:36:22;7.40;69.50
67141;DHT22;54058;52.010;5.546;2023-04-15T04:38:48;7.40;69.60
67141;DHT22;54058;52.010;5.546;2023-04-15T04:41:13;7.40;69.70
67141;DHT22;54058;52.010;5.546;2023-04-15T04:43:39;7.40;69.80
67141;DHT22;54058;52.010;5.546;2023-04-15T04:46:04;7.40;69.90
67141;DHT22;54058;52.010;5.546;2023-04-15T04:48:30;7.40;69.80
67141;DHT22;54058;52.010;5.546;2023-04-15T04:50:56;7.40;69.90
67141;DHT22;54058;52.010;5.546;2023-04-15T04:53:21;7.40;69.60
67141;DHT22;54058;52.010;5.546;2023-04-15T04:55:47;7.30;70.10
67141;DHT22;54058;52.010;5.546;2023-04-15T04:58:12;7.20;69.70
67141;DHT22;54058;52.010;5.546;2023-04-15T05:00:40;7.20;69.70
67141;DHT22;54058;52.010;5.546;2023-04-15T05:03:06;7.20;69.70
67141;DHT22;54058;52.010;5.546;2023-04-15T05:05:32;7.10;69.90
67141;DHT22;54058;52.010;5.546;2023-04-15T05:07:57;7.10;70.00
67141;DHT22;54058;52.010;5.546;2023-04-15T05:10:23;7.10;70.30
67141;DHT22;54058;52.010;5.546;2023-04-15T05:12:48;7.10;70.20
67141;DHT22;54058;52.010;5.546;2023-04-15T05:15:14;7.10;70.20
67141;DHT22;54058;52.010;5.546;2023-04-15T05:17:40;7.10;70.20
67141;DHT22;54058;52.010;5.546;2023-04-15T05:20:06;7.10;70.20
67141;DHT22;54058;52.010;5.546;2023-04-15T05:22:32;7.10;70.30
67141;DHT22;54058;52.010;5.546;2023-04-15T05:24:58;7.10;70.60
67141;DHT22;54058;52.010;5.546;2023-04-15T05:27:23;7.30;70.50
67141;DHT22;54058;52.010;5.546;2023-04-15T05:29:50;7.30;70.50
67141;DHT22;54058;52.010;5.546;2023-04-15T05:32:15;7.30;70.40
67141;DHT22;54058;52.010;5.546;2023-04-15T05:34:41;7.30;70.40
67141;DHT22;54058;52.010;5.546;2023-04-15T05:37:07;7.40;70.50
67141;DHT22;54058;52.010;5.546;2023-04-15T05:39:32;7.40;70.70
67141;DHT22;54058;52.010;5.546;2023-04-15T05:41:58;7.40;70.70
67141;DHT22;54058;52.010;5.546;2023-04-15T05:44:24;7.50;70.70
67141;DHT22;54058;52.010;5.546;2023-04-15T05:46:50;7.60;70.60
67141;DHT22;54058;52.010;5.546;2023-04-15T05:49:16;7.60;70.60
67141;DHT22;54058;52.010;5.546;2023-04-15T05:51:42;7.60;70.70
67141;DHT22;54058;52.010;5.546;2023-04-15T05:54:07;7.70;70.60
67141;DHT22;54058;52.010;5.546;2023-04-15T05:56:33;7.80;70.70
67141;DHT22;54058;52.010;5.546;2023-04-15T05:58:58;7.70;70.70
67141;DHT22;54058;52.010;5.546;2023-04-15T06:01:24;7.80;70.80
67141;DHT22;54058;52.010;5.546;2023-04-15T06:03:50;7.90;70.80
67141;DHT22;54058;52.010;5.546;2023-04-15T06:06:16;7.90;70.70
67141;DHT22;54058;52.010;5.546;2023-04-15T06:08:41;8.00;70.80
67141;DHT22;54058;52.010;5.546;2023-04-15T06:11:07;8.00;70.80
67141;DHT22;54058;52.010;5.546;2023-04-15T06:13:32;8.10;71.00
67141;DHT22;54058;52.010;5.546;2023-04-15T06:15:59;8.20;70.90
67141;DHT22;54058;52.010;5.546;2023-04-15T06:18:24;8.30;70.90
67141;DHT22;54058;52.010;5.546;2023-04-15T06:20:50;8.50;70.90
67141;DHT22;54058;52.010;5.546;2023-04-15T06:23:16;8.60;70.80
67141;DHT22;54058;52.010;5.546;2023-04-15T06:25:41;8.70;70.80
67141;DHT22;54058;52.010;5.546;2023-04-15T06:28:07;8.80;70.80
67141;DHT22;54058;52.010;5.546;2023-04-15T06:30:33;8.90;70.90
67141;DHT22;54058;52.010;5.546;2023-04-15T06:33:00;9.00;71.00
67141;DHT22;54058;52.010;5.546;2023-04-15T06:35:27;9.10;71.00
67141;DHT22;54058;52.010;5.546;2023-04-15T06:37:53;9.30;71.10
67141;DHT22;54058;52.010;5.546;2023-04-15T06:40:19;9.40;71.00
67141;DHT22;54058;52.010;5.546;2023-04-15T06:42:44;9.60;71.10
67141;DHT22;54058;52.010;5.546;2023-04-15T06:45:10;9.70;71.10
67141;DHT22;54058;52.010;5.546;2023-04-15T06:47:36;9.70;71.50
67141;DHT22;54058;52.010;5.546;2023-04-15T06:50:01;9.80;72.50
67141;DHT22;54058;52.010;5.546;2023-04-15T06:52:28;10.10;72.40
67141;DHT22;54058;52.010;5.546;2023-04-15T06:54:54;10.50;72.50
67141;DHT22;54058;52.010;5.546;2023-04-15T06:57:19;11.10;72.10
67141;DHT22;54058;52.010;5.546;2023-04-15T06:59:45;11.10;71.90
67141;DHT22;54058;52.010;5.546;2023-04-15T07:02:12;11.30;72.00
67141;DHT22;54058;52.010;5.546;2023-04-15T07:04:38;11.30;72.00
67141;DHT22;54058;52.010;5.546;2023-04-15T07:07:04;11.40;72.10
67141;DHT22;54058;52.010;5.546;2023-04-15T07:09:30;11.30;72.20
67141;DHT22;54058;52.010;5.546;2023-04-15T07:11:56;11.20;72.50
67141;DHT22;54058;52.010;5.546;2023-04-15T07:14:22;11.10;72.50
67141;DHT22;54058;52.010;5.546;2023-04-15T07:16:47;11.10;72.70
67141;DHT22;54058;52.010;5.546;2023-04-15T07:19:13;11.10;72.80
67141;DHT22;54058;52.010;5.546;2023-04-15T07:21:39;11.30;72.90
67141;DHT22;54058;52.010;5.546;2023-04-15T07:24:04;11.50;72.70
67141;DHT22;54058;52.010;5.546;2023-04-15T07:26:31;11.40;72.40
67141;DHT22;54058;52.010;5.546;2023-04-15T07:28:56;11.30;72.40
67141;DHT22;54058;52.010;5.546;2023-04-15T07:31:22;11.50;72.50
67141;DHT22;54058;52.010;5.546;2023-04-15T07:33:47;11.90;72.30
67141;DHT22;54058;52.010;5.546;2023-04-15T07:36:13;12.10;72.00
67141;DHT22;54058;52.010;5.546;2023-04-15T07:38:39;12.30;71.50
67141;DHT22;54058;52.010;5.546;2023-04-15T07:41:05;12.20;71.10
67141;DHT22;54058;52.010;5.546;2023-04-15T07:43:31;12.10;71.20
67141;DHT22;54058;52.010;5.546;2023-04-15T07:45:57;12.00;71.10
67141;DHT22;54058;52.010;5.546;2023-04-15T07:48:22;12.00;70.90
67141;DHT22;54058;52.010;5.546;2023-04-15T07:50:48;12.00;70.40
67141;DHT22;54058;52.010;5.546;2023-04-15T07:53:13;12.00;70.60
67141;DHT22;54058;52.010;5.546;2023-04-15T07:55:39;12.10;70.50
67141;DHT22;54058;52.010;5.546;2023-04-15T07:58:05;12.10;70.20
67141;DHT22;54058;52.010;5.546;2023-04-15T08:00:30;12.20;69.90
67141;DHT22;54058;52.010;5.546;2023-04-15T08:02:56;12.30;70.20
67141;DHT22;54058;52.010;5.546;2023-04-15T08:05:23;12.40;70.00
67141;DHT22;54058;52.010;5.546;2023-04-15T08:07:50;12.40;68.70
67141;DHT22;54058;52.010;5.546;2023-04-15T08:10:16;12.40;69.30
67141;DHT22;54058;52.010;5.546;2023-04-15T08:12:41;12.50;69.50
67141;DHT22;54058;52.010;5.546;2023-04-15T08:15:08;12.40;69.10
67141;DHT22;54058;52.010;5.546;2023-04-15T08:17:33;12.30;69.20
67141;DHT22;54058;52.010;5.546;2023-04-15T08:19:59;12.30;69.70
67141;DHT22;54058;52.010;5.546;2023-04-15T08:22:25;12.20;68.80
67141;DHT22;54058;52.010;5.546;2023-04-15T08:24:51;12.20;68.10
67141;DHT22;54058;52.010;5.546;2023-04-15T08:27:17;12.20;68.00
67141;DHT22;54058;52.010;5.546;2023-04-15T08:29:43;12.10;67.70
67141;DHT22;54058;52.010;5.546;2023-04-15T08:32:10;12.10;67.70
67141;DHT22;54058;52.010;5.546;2023-04-15T08:34:35;12.20;67.20
67141;DHT22;54058;52.010;5.546;2023-04-15T08:37:01;12.10;67.20
67141;DHT22;54058;52.010;5.546;2023-04-15T08:39:26;12.20;66.30
67141;DHT22;54058;52.010;5.546;2023-04-15T08:42:02;12.20;67.10
67141;DHT22;54058;52.010;5.546;2023-04-15T08:44:32;12.20;66.80
67141;DHT22;54058;52.010;5.546;2023-04-15T08:47:02;12.20;66.50
67141;DHT22;54058;52.010;5.546;2023-04-15T08:49:28;12.20;66.30
67141;DHT22;54058;52.010;5.546;2023-04-15T08:51:55;12.30;66.70
67141;DHT22;54058;52.010;5.546;2023-04-15T08:54:22;12.40;66.30
67141;DHT22;54058;52.010;5.546;2023-04-15T08:56:49;12.50;66.40
67141;DHT22;54058;52.010;5.546;2023-04-15T08:59:14;12.60;65.90
67141;DHT22;54058;52.010;5.546;2023-04-15T09:01:41;12.60;65.70
67141;DHT22;54058;52.010;5.546;2023-04-15T09:04:07;12.80;65.50
67141;DHT22;54058;52.010;5.546;2023-04-15T09:06:33;12.80;65.00
67141;DHT22;54058;52.010;5.546;2023-04-15T09:08:59;12.90;63.40
67141;DHT22;54058;52.010;5.546;2023-04-15T09:11:24;12.90;64.80
67141;DHT22;54058;52.010;5.546;2023-04-15T09:13:51;12.80;65.00
67141;DHT22;54058;52.010;5.546;2023-04-15T09:16:17;12.90;65.30
67141;DHT22;54058;52.010;5.546;2023-04-15T09:18:43;12.90;65.10
67141;DHT22;54058;52.010;5.546;2023-04-15T09:21:13;13.00;65.50
67141;DHT22;54058;52.010;5.546;2023-04-15T09:23:52;13.00;64.80
67141;DHT22;54058;52.010;5.546;2023-04-15T09:26:28;13.10;65.00
67141;DHT22;54058;52.010;5.546;2023-04-15T09:29:08;13.20;65.00
67141;DHT22;54058;52.010;5.546;2023-04-15T09:31:37;13.10;64.10
67141;DHT22;54058;52.010;5.546;2023-04-15T09:34:04;13.10;64.90
67141;DHT22;54058;52.010;5.546;2023-04-15T09:39:12;13.30;64.70
67141;DHT22;54058;52.010;5.546;2023-04-15T09:41:38;13.20;64.70
67141;DHT22;54058;52.010;5.546;2023-04-15T09:44:05;13.10;65.10
67141;DHT22;54058;52.010;5.546;2023-04-15T09:46:43;13.10;64.60
67141;DHT22;54058;52.010;5.546;2023-04-15T09:49:10;13.00;64.20
67141;DHT22;54058;52.010;5.546;2023-04-15T09:51:37;13.10;64.80
67141;DHT22;54058;52.010;5.546;2023-04-15T09:54:02;13.10;64.50
67141;DHT22;54058;52.010;5.546;2023-04-15T09:56:36;13.20;64.50
67141;DHT22;54058;52.010;5.546;2023-04-15T09:59:10;13.20;63.20
67141;DHT22;54058;52.010;5.546;2023-04-15T10:01:37;13.30;63.90
67141;DHT22;54058;52.010;5.546;2023-04-15T10:04:05;13.30;63.80
67141;DHT22;54058;52.010;5.546;2023-04-15T10:06:31;13.50;63.60
67141;DHT22;54058;52.010;5.546;2023-04-15T10:08:57;13.60;63.60
67141;DHT22;54058;52.010;5.546;2023-04-15T10:11:26;13.70;63.50
67141;DHT22;54058;52.010;5.546;2023-04-15T10:13:53;13.80;62.90
67141;DHT22;54058;52.010;5.546;2023-04-15T10:16:20;13.80;62.60
67141;DHT22;54058;52.010;5.546;2023-04-15T10:18:54;13.70;62.60
67141;DHT22;54058;52.010;5.546;2023-04-15T10:21:21;13.80;62.50
67141;DHT22;54058;52.010;5.546;2023-04-15T10:23:49;13.90;62.30
67141;DHT22;54058;52.010;5.546;2023-04-15T10:26:15;14.00;62.30
67141;DHT22;54058;52.010;5.546;2023-04-15T10:28:42;14.10;61.70
67141;DHT22;54058;52.010;5.546;2023-04-15T10:31:08;14.10;59.50
67141;DHT22;54058;52.010;5.546;2023-04-15T10:33:36;14.20;62.00
67141;DHT22;54058;52.010;5.546;2023-04-15T10:36:03;14.30;61.90
67141;DHT22;54058;52.010;5.546;2023-04-15T10:38:34;14.30;61.60
67141;DHT22;54058;52.010;5.546;2023-04-15T10:41:14;14.20;61.30
67141;DHT22;54058;52.010;5.546;2023-04-15T10:43:45;14.20;60.30
67141;DHT22;54058;52.010;5.546;2023-04-15T10:46:10;14.10;61.80
67141;DHT22;54058;52.010;5.546;2023-04-15T10:48:47;14.10;62.10
67141;DHT22;54058;52.010;5.546;2023-04-15T10:51:13;14.10;62.10
67141;DHT22;54058;52.010;5.546;2023-04-15T10:53:41;13.90;62.30
67141;DHT22;54058;52.010;5.546;2023-04-15T10:56:07;13.90;62.30
67141;DHT22;54058;52.010;5.546;2023-04-15T10:58:42;13.90;62.10
67141;DHT22;54058;52.010;5.546;2023-04-15T11:01:08;13.90;61.30
67141;DHT22;54058;52.010;5.546;2023-04-15T11:03:39;13.90;62.60
67141;DHT22;54058;52.010;5.546;2023-04-15T11:06:07;13.90;62.50
67141;DHT22;54058;52.010;5.546;2023-04-15T11:08:55;14.00;62.60
67141;DHT22;54058;52.010;5.546;2023-04-15T11:11:21;13.90;61.90
67141;DHT22;54058;52.010;5.546;2023-04-15T11:13:49;13.90;62.60
67141;DHT22;54058;52.010;5.546;2023-04-15T11:16:15;14.10;62.50
67141;DHT22;54058;52.010;5.546;2023-04-15T11:18:40;14.30;62.20
67141;DHT22;54058;52.010;5.546;2023-04-15T11:21:07;14.50;61.30
67141;DHT22;54058;52.010;5.546;2023-04-15T11:23:41;14.30;61.60
67141;DHT22;54058;52.010;5.546;2023-04-15T11:26:12;14.30;62.00
67141;DHT22;54058;52.010;5.546;2023-04-15T11:28:46;14.30;61.60
67141;DHT22;54058;52.010;5.546;2023-04-15T11:31:14;14.20;60.30
67141;DHT22;54058;52.010;5.546;2023-04-15T11:33:55;14.20;61.70
67141;DHT22;54058;52.010;5.546;2023-04-15T11:36:26;14.20;61.10
67141;DHT22;54058;52.010;5.546;2023-04-15T11:38:52;14.30;60.90
67141;DHT22;54058;52.010;5.546;2023-04-15T11:41:22;14.40;61.00
67141;DHT22;54058;52.010;5.546;2023-04-15T11:43:48;14.50;60.60
67141;DHT22;54058;52.010;5.546;2023-04-15T11:46:14;14.40;60.00
67141;DHT22;54058;52.010;5.546;2023-04-15T11:48:44;14.30;60.80
67141;DHT22;54058;52.010;5.546;2023-04-15T11:51:12;14.30;61.10
67141;DHT22;54058;52.010;5.546;2023-04-15T11:56:04;14.30;58.70
67141;DHT22;54058;52.010;5.546;2023-04-15T11:58:30;14.30;61.00
67141;DHT22;54058;52.010;5.546;2023-04-15T12:01:00;14.40;60.90
67141;DHT22;54058;52.010;5.546;2023-04-15T12:03:42;14.30;60.10
67141;DHT22;54058;52.010;5.546;2023-04-15T12:06:23;14.50;59.50
67141;DHT22;54058;52.010;5.546;2023-04-15T12:09:16;14.70;60.30
67141;DHT22;54058;52.010;5.546;2023-04-15T12:11:50;14.60;58.50
67141;DHT22;54058;52.010;5.546;2023-04-15T12:16:50;14.80;59.70
67141;DHT22;54058;52.010;5.546;2023-04-15T12:19:55;14.70;59.00
67141;DHT22;54058;52.010;5.546;2023-04-15T12:22:41;14.80;58.00
67141;DHT22;54058;52.010;5.546;2023-04-15T12:28:37;14.60;58.00
67141;DHT22;54058;52.010;5.546;2023-04-15T12:31:18;14.60;58.10
67141;DHT22;54058;52.010;5.546;2023-04-15T12:34:24;14.40;59.10
67141;DHT22;54058;52.010;5.546;2023-04-15T12:37:15;14.30;57.40
67141;DHT22;54058;52.010;5.546;2023-04-15T12:43:53;14.40;58.00
67141;DHT22;54058;52.010;5.546;2023-04-15T12:46:35;14.40;58.60
67141;DHT22;54058;52.010;5.546;2023-04-15T12:49:13;14.20;58.70
67141;DHT22;54058;52.010;5.546;2023-04-15T12:55:35;14.20;57.40
67141;DHT22;54058;52.010;5.546;2023-04-15T12:58:22;14.00;59.10
67141;DHT22;54058;52.010;5.546;2023-04-15T13:01:32;14.00;59.00
67141;DHT22;54058;52.010;5.546;2023-04-15T13:04:24;13.90;59.80
67141;DHT22;54058;52.010;5.546;2023-04-15T13:07:00;14.00;59.80
67141;DHT22;54058;52.010;5.546;2023-04-15T13:09:26;14.10;60.60
67141;DHT22;54058;52.010;5.546;2023-04-15T13:11:52;14.10;60.10
67141;DHT22;54058;52.010;5.546;2023-04-15T13:14:19;14.00;60.30
67141;DHT22;54058;52.010;5.546;2023-04-15T13:16:44;14.00;60.30
67141;DHT22;54058;52.010;5.546;2023-04-15T13:19:10;14.00;60.40
67141;DHT22;54058;52.010;5.546;2023-04-15T13:21:36;14.10;60.40
67141;DHT22;54058;52.010;5.546;2023-04-15T13:24:02;14.00;59.70
67141;DHT22;54058;52.010;5.546;2023-04-15T13:26:28;14.00;60.20
67141;DHT22;54058;52.010;5.546;2023-04-15T13:28:53;14.00;59.80
67141;DHT22;54058;52.010;5.546;2023-04-15T13:31:19;13.90;60.20
67141;DHT22;54058;52.010;5.546;2023-04-15T13:33:45;13.90;60.40
67141;DHT22;54058;52.010;5.546;2023-04-15T13:36:11;13.80;60.30
67141;DHT22;54058;52.010;5.546;2023-04-15T13:38:36;13.70;60.40
67141;DHT22;54058;52.010;5.546;2023-04-15T13:41:02;13.70;60.50
67141;DHT22;54058;52.010;5.546;2023-04-15T13:43:28;13.70;60.20
67141;DHT22;54058;52.010;5.546;2023-04-15T13:45:54;13.70;60.20
67141;DHT22;54058;52.010;5.546;2023-04-15T13:48:19;13.70;60.30
67141;DHT22;54058;52.010;5.546;2023-04-15T13:50:45;13.60;60.30
67141;DHT22;54058;52.010;5.546;2023-04-15T13:53:11;13.50;60.30
67141;DHT22;54058;52.010;5.546;2023-04-15T13:55:37;13.50;60.50
67141;DHT22;54058;52.010;5.546;2023-04-15T13:58:06;13.40;60.60
67141;DHT22;54058;52.010;5.546;2023-04-15T14:00:32;13.50;61.00
67141;DHT22;54058;52.010;5.546;2023-04-15T14:02:57;13.50;61.10
67141;DHT22;54058;52.010;5.546;2023-04-15T14:05:23;13.50;61.00
67141;DHT22;54058;52.010;5.546;2023-04-15T14:07:49;13.40;61.00
67141;DHT22;54058;52.010;5.546;2023-04-15T14:10:14;13.10;61.50
67141;DHT22;54058;52.010;5.546;2023-04-15T14:12:40;13.10;61.80
67141;DHT22;54058;52.010;5.546;2023-04-15T14:15:06;13.10;61.80
67141;DHT22;54058;52.010;5.546;2023-04-15T14:17:32;13.10;61.90
67141;DHT22;54058;52.010;5.546;2023-04-15T14:19:58;13.20;61.60
67141;DHT22;54058;52.010;5.546;2023-04-15T14:22:23;13.20;61.20
67141;DHT22;54058;52.010;5.546;2023-04-15T14:24:50;13.20;61.40
67141;DHT22;54058;52.010;5.546;2023-04-15T14:27:18;13.20;61.30
67141;DHT22;54058;52.010;5.546;2023-04-15T14:29:44;13.10;61.50
67141;DHT22;54058;52.010;5.546;2023-04-15T14:32:09;13.00;61.90
67141;DHT22;54058;52.010;5.546;2023-04-15T14:34:35;12.80;62.20
67141;DHT22;54058;52.010;5.546;2023-04-15T14:37:02;12.80;62.20
67141;DHT22;54058;52.010;5.546;2023-04-15T14:39:27;12.70;62.20
67141;DHT22;54058;52.010;5.546;2023-04-15T14:41:53;12.60;62.30
67141;DHT22;54058;52.010;5.546;2023-04-15T14:44:19;12.60;62.50
67141;DHT22;54058;52.010;5.546;2023-04-15T14:46:45;12.60;62.50
67141;DHT22;54058;52.010;5.546;2023-04-15T14:49:11;12.50;62.70
67141;DHT22;54058;52.010;5.546;2023-04-15T14:51:36;12.40;63.10
67141;DHT22;54058;52.010;5.546;2023-04-15T14:54:02;12.30;63.40
67141;DHT22;54058;52.010;5.546;2023-04-15T14:56:28;12.20;63.30
67141;DHT22;54058;52.010;5.546;2023-04-15T14:58:53;12.10;63.80
67141;DHT22;54058;52.010;5.546;2023-04-15T15:01:20;12.10;63.70
67141;DHT22;54058;52.010;5.546;2023-04-15T15:03:46;12.10;64.70
67141;DHT22;54058;52.010;5.546;2023-04-15T15:06:11;12.10;64.40
67141;DHT22;54058;52.010;5.546;2023-04-15T15:08:37;12.10;64.90
67141;DHT22;54058;52.010;5.546;2023-04-15T15:11:03;12.00;64.80
67141;DHT22;54058;52.010;5.546;2023-04-15T15:13:29;11.90;64.70
67141;DHT22;54058;52.010;5.546;2023-04-15T15:15:56;11.80;64.90
67141;DHT22;54058;52.010;5.546;2023-04-15T15:18:21;11.70;65.10
67141;DHT22;54058;52.010;5.546;2023-04-15T15:20:47;11.70;64.80
67141;DHT22;54058;52.010;5.546;2023-04-15T15:23:13;11.80;65.00
67141;DHT22;54058;52.010;5.546;2023-04-15T15:25:39;11.80;65.20
67141;DHT22;54058;52.010;5.546;2023-04-15T15:28:05;11.80;65.00
67141;DHT22;54058;52.010;5.546;2023-04-15T15:30:31;11.70;65.50
67141;DHT22;54058;52.010;5.546;2023-04-15T15:32:57;11.70;65.50
67141;DHT22;54058;52.010;5.546;2023-04-15T15:35:23;11.60;66.10
67141;DHT22;54058;52.010;5.546;2023-04-15T15:37:50;11.60;65.50
67141;DHT22;54058;52.010;5.546;2023-04-15T15:40:15;11.50;65.90
67141;DHT22;54058;52.010;5.546;2023-04-15T15:42:41;11.50;65.90
67141;DHT22;54058;52.010;5.546;2023-04-15T15:45:07;11.50;66.00
67141;DHT22;54058;52.010;5.546;2023-04-15T15:47:33;11.70;65.80
67141;DHT22;54058;52.010;5.546;2023-04-15T15:49:59;11.70;65.70
67141;DHT22;54058;52.010;5.546;2023-04-15T15:52:26;11.70;65.90
67141;DHT22;54058;52.010;5.546;2023-04-15T15:54:51;11.70;65.70
67141;DHT22;54058;52.010;5.546;2023-04-15T15:57:17;11.60;66.40